createdAt,value
2022-11-02T00:01:38.701Z,7.27
2022-11-02T00:04:25.571Z,7.19
2022-11-02T00:07:11.998Z,7.13
2022-11-02T00:09:58.815Z,7.09
2022-11-02T00:12:45.786Z,7.10
2022-11-02T00:15:35.756Z,7.08
2022-11-02T00:18:24.023Z,7.09
2022-11-02T00:21:12.020Z,7.08
2022-11-02T00:23:59.917Z,7.10
2022-11-02T00:26:46.559Z,7.09
2022-11-02T00:29:35.378Z,7.03
2022-11-02T00:32:21.857Z,6.96
2022-11-02T00:35:11.372Z,6.98
2022-11-02T00:37:58.218Z,6.95
2022-11-02T00:40:45.013Z,7.01
2022-11-02T00:43:31.696Z,6.95
2022-11-02T00:46:18.571Z,6.92
2022-11-02T00:49:05.379Z,6.92
2022-11-02T00:51:56.449Z,6.83
2022-11-02T00:54:44.315Z,6.75
2022-11-02T00:57:31.350Z,6.73
2022-11-02T01:00:19.203Z,6.73
2022-11-02T01:03:06.732Z,6.74
2022-11-02T01:05:53.219Z,6.76
2022-11-02T01:08:42.012Z,6.78
2022-11-02T01:11:28.844Z,6.77
2022-11-02T01:14:15.235Z,6.80
2022-11-02T01:17:01.995Z,6.81
2022-11-02T01:19:48.563Z,6.74
2022-11-02T01:22:35.926Z,6.82
2022-11-02T01:25:24.013Z,6.78
2022-11-02T01:28:11.321Z,6.70
2022-11-02T01:31:00.158Z,6.69
2022-11-02T01:33:48.027Z,6.73
2022-11-02T01:36:34.963Z,6.63
2022-11-02T01:39:21.543Z,6.56
2022-11-02T01:42:19.973Z,6.61
2022-11-02T01:45:08.063Z,6.58
2022-11-02T01:47:54.889Z,6.62
2022-11-02T01:50:42.172Z,6.78
2022-11-02T01:53:29.740Z,6.88
2022-11-02T01:56:19.313Z,6.96
2022-11-02T01:59:15.538Z,6.96
2022-11-02T02:02:02.180Z,7.07
2022-11-02T02:04:52.341Z,7.13
2022-11-02T02:07:41.325Z,7.29
2022-11-02T02:10:27.942Z,7.32
2022-11-02T02:13:17.670Z,7.34
2022-11-02T02:16:15.886Z,7.39
2022-11-02T02:19:09.835Z,7.43
2022-11-02T02:22:21.891Z,7.45
2022-11-02T02:25:26.152Z,7.49
2022-11-02T02:28:22.276Z,7.52
2022-11-02T02:31:16.050Z,7.51
2022-11-02T02:34:10.581Z,7.51
2022-11-02T02:37:06.724Z,7.50
2022-11-02T02:40:00.052Z,7.46
2022-11-02T02:42:54.053Z,7.57
2022-11-02T02:45:46.214Z,7.51
2022-11-02T02:48:35.351Z,7.51
2022-11-02T02:51:25.961Z,7.47
2022-11-02T02:54:18.881Z,7.67
2022-11-02T02:57:11.119Z,7.64
2022-11-02T02:59:57.807Z,7.66
2022-11-02T03:03:01.246Z,7.77
2022-11-02T03:06:04.298Z,7.72
2022-11-02T03:09:03.554Z,7.67
2022-11-02T03:12:00.136Z,7.66
2022-11-02T03:15:02.215Z,7.87
2022-11-02T03:18:03.113Z,7.76
2022-11-02T03:21:04.307Z,7.82
2022-11-02T03:23:55.876Z,7.99
2022-11-02T03:26:50.576Z,8.03
2022-11-02T03:29:45.410Z,7.99
2022-11-02T03:32:39.178Z,7.98
2022-11-02T03:35:36.351Z,7.97
2022-11-02T03:38:27.154Z,7.84
2022-11-02T03:41:16.834Z,7.81
2022-11-02T03:44:08.852Z,7.82
2022-11-02T03:47:00.256Z,7.70
2022-11-02T03:49:51.715Z,7.73
2022-11-02T03:52:43.002Z,7.73
2022-11-02T03:55:34.981Z,7.77
2022-11-02T03:58:21.989Z,7.87
2022-11-02T04:01:09.796Z,7.76
2022-11-02T04:03:58.639Z,7.82
2022-11-02T04:06:48.409Z,7.67
2022-11-02T04:09:36.670Z,7.77
2022-11-02T04:12:41.215Z,7.89
2022-11-02T04:15:28.154Z,7.77
2022-11-02T04:18:46.679Z,7.68
2022-11-02T04:21:33.669Z,7.59
2022-11-02T04:24:36.774Z,7.56
2022-11-02T04:27:25.129Z,7.52
2022-11-02T04:30:13.386Z,7.53
2022-11-02T04:33:17.202Z,7.59
2022-11-02T04:36:10.210Z,7.64
2022-11-02T04:38:58.450Z,7.59
2022-11-02T04:41:47.730Z,7.69
2022-11-02T04:44:49.823Z,7.76
2022-11-02T04:47:42.255Z,7.88
2022-11-02T04:50:29.154Z,7.87
2022-11-02T04:53:15.663Z,7.99
2022-11-02T04:56:02.470Z,7.85
2022-11-02T04:58:50.051Z,7.83
2022-11-02T05:01:39.319Z,7.76
2022-11-02T05:04:25.928Z,7.78
2022-11-02T05:07:13.453Z,7.78
2022-11-02T05:10:00.136Z,7.59
2022-11-02T05:12:46.927Z,7.69
2022-11-02T05:15:34.185Z,7.75
2022-11-02T05:18:28.246Z,7.77
2022-11-02T05:21:15.598Z,7.89
2022-11-02T05:24:02.423Z,7.80
2022-11-02T05:26:53.751Z,7.74
2022-11-02T05:29:43.651Z,7.78
2022-11-02T05:32:30.603Z,7.65
2022-11-02T05:35:19.251Z,7.55
2022-11-02T05:38:06.796Z,7.52
2022-11-02T05:40:53.871Z,7.54
2022-11-02T05:43:41.563Z,7.52
2022-11-02T05:46:31.158Z,7.51
2022-11-02T05:49:18.010Z,7.56
2022-11-02T05:52:06.327Z,7.49
2022-11-02T05:54:53.189Z,7.48
2022-11-02T05:57:40.319Z,7.53
2022-11-02T06:00:26.928Z,7.53
2022-11-02T06:03:13.889Z,7.44
2022-11-02T06:06:01.956Z,7.39
2022-11-02T06:08:49.907Z,7.60
2022-11-02T06:11:36.847Z,7.70
2022-11-02T06:14:23.227Z,7.53
2022-11-02T06:17:09.967Z,7.47
2022-11-02T06:19:56.741Z,7.51
2022-11-02T06:22:43.973Z,7.51
2022-11-02T06:25:31.700Z,7.46
2022-11-02T06:28:18.609Z,7.67
2022-11-02T06:31:05.794Z,7.56
2022-11-02T06:33:52.542Z,7.61
2022-11-02T06:36:39.261Z,7.66
2022-11-02T06:39:26.160Z,7.65
2022-11-02T06:42:14.077Z,7.79
2022-11-02T06:45:02.687Z,8.00
2022-11-02T06:47:50.078Z,8.02
2022-11-02T06:50:36.739Z,8.06
2022-11-02T06:53:23.587Z,8.17
2022-11-02T06:56:12.478Z,8.17
2022-11-02T06:59:01.044Z,8.11
2022-11-02T07:01:52.691Z,8.17
2022-11-02T07:04:39.906Z,8.27
2022-11-02T07:07:26.339Z,8.42
2022-11-02T07:10:13.374Z,8.39
2022-11-02T07:13:00.176Z,8.51
2022-11-02T07:15:48.636Z,8.44
2022-11-02T07:18:35.345Z,8.53
2022-11-02T07:21:22.209Z,8.58
2022-11-02T07:24:09.069Z,8.62
2022-11-02T07:26:56.137Z,8.72
2022-11-02T07:29:42.599Z,8.69
2022-11-02T07:32:30.851Z,8.76
2022-11-02T07:35:17.825Z,8.80
2022-11-02T07:38:06.368Z,8.81
2022-11-02T07:40:53.258Z,8.92
2022-11-02T07:43:43.001Z,9.12
2022-11-02T07:46:44.807Z,9.20
2022-11-02T07:49:32.890Z,9.27
2022-11-02T07:52:19.957Z,9.16
2022-11-02T07:55:07.402Z,9.34
2022-11-02T07:57:55.026Z,9.52
2022-11-02T08:00:42.497Z,9.67
2022-11-02T08:03:30.262Z,9.89
2022-11-02T08:06:18.439Z,10.13
2022-11-02T08:09:05.233Z,10.27
2022-11-02T08:11:52.190Z,10.44
2022-11-02T08:14:38.852Z,10.58
2022-11-02T08:17:25.700Z,10.65
2022-11-02T08:20:12.789Z,10.73
2022-11-02T08:23:01.009Z,10.79
2022-11-02T08:25:49.274Z,10.69
2022-11-02T08:28:40.135Z,10.71
2022-11-02T08:31:26.787Z,10.79
2022-11-02T08:34:13.804Z,10.86
2022-11-02T08:37:00.343Z,10.86
2022-11-02T08:39:48.681Z,10.92
2022-11-02T08:42:35.263Z,11.02
2022-11-02T08:45:22.130Z,11.06
2022-11-02T08:48:09.292Z,11.07
2022-11-02T08:50:57.066Z,11.15
2022-11-02T08:53:50.224Z,11.28
2022-11-02T08:56:39.664Z,11.38
2022-11-02T08:59:26.369Z,11.59
2022-11-02T09:02:13.137Z,11.55
2022-11-02T09:04:59.780Z,11.77
2022-11-02T09:07:46.517Z,11.94
2022-11-02T09:10:35.510Z,12.06
2022-11-02T09:13:25.643Z,12.04
2022-11-02T09:16:12.747Z,11.94
2022-11-02T09:18:59.529Z,11.79
2022-11-02T09:21:46.278Z,11.79
2022-11-02T09:24:33.060Z,11.69
2022-11-02T09:27:19.838Z,11.82
2022-11-02T09:30:09.497Z,11.86
2022-11-02T09:32:56.894Z,11.90
2022-11-02T09:35:45.572Z,11.95
2022-11-02T09:38:32.840Z,12.10
2022-11-02T09:41:26.651Z,11.99
2022-11-02T09:44:18.613Z,12.20
2022-11-02T09:47:55.949Z,12.19
2022-11-02T09:50:22.114Z,12.33
2022-11-02T09:53:14.238Z,12.49
2022-11-02T09:56:03.469Z,12.50
2022-11-02T09:58:58.374Z,12.59
2022-11-02T10:01:56.761Z,12.59
2022-11-02T10:05:16.448Z,12.78
2022-11-02T10:08:26.129Z,12.93
2022-11-02T10:11:26.204Z,13.02
2022-11-02T10:14:18.787Z,13.09
2022-11-02T10:17:13.943Z,13.28
2022-11-02T10:20:06.798Z,13.61
2022-11-02T10:22:56.631Z,13.77
2022-11-02T10:25:44.075Z,13.66
2022-11-02T10:28:32.569Z,13.67
2022-11-02T10:31:26.641Z,13.59
2022-11-02T10:34:23.658Z,13.58
2022-11-02T10:37:25.878Z,13.73
2022-11-02T10:40:27.570Z,13.71
2022-11-02T10:43:26.400Z,13.69
2022-11-02T10:46:25.774Z,13.60
2022-11-02T10:49:23.575Z,13.65
2022-11-02T10:52:15.551Z,13.53
2022-11-02T10:55:03.916Z,13.67
2022-11-02T10:57:50.911Z,13.62
2022-11-02T11:00:39.029Z,13.82
2022-11-02T11:03:26.288Z,13.88
2022-11-02T11:06:14.064Z,13.86
2022-11-02T11:09:04.386Z,13.96
2022-11-02T11:11:57.687Z,13.99
2022-11-02T11:21:01.457Z,13.92
2022-11-02T11:23:48.114Z,14.08
2022-11-02T11:26:34.951Z,14.22
2022-11-02T11:29:24.361Z,14.17
2022-11-02T11:32:16.862Z,14.23
2022-11-02T11:35:06.411Z,14.19
2022-11-02T11:37:57.203Z,14.24
2022-11-02T11:40:48.905Z,14.23
2022-11-02T11:43:38.606Z,14.32
2022-11-02T11:46:40.783Z,14.40
2022-11-02T11:49:47.920Z,14.52
2022-11-02T11:52:36.087Z,14.51
2022-11-02T11:55:26.619Z,14.45
2022-11-02T11:58:17.733Z,14.38
2022-11-02T12:01:10.664Z,14.33
2022-11-02T12:04:00.989Z,14.36
2022-11-02T12:06:58.339Z,14.49
2022-11-02T12:09:51.244Z,14.57
2022-11-02T12:12:53.266Z,14.57
2022-11-02T12:16:03.044Z,14.48
2022-11-02T12:19:07.881Z,14.45
2022-11-02T12:22:05.663Z,14.43
2022-11-02T12:25:06.913Z,14.59
2022-11-02T12:28:01.780Z,14.75
2022-11-02T12:30:56.857Z,14.62
2022-11-02T12:34:14.682Z,14.55
2022-11-02T12:40:28.359Z,14.51
2022-11-02T12:43:33.536Z,14.40
2022-11-02T12:46:40.446Z,14.57
2022-11-02T12:49:42.013Z,14.51
2022-11-02T12:52:42.721Z,14.40
2022-11-02T12:55:38.338Z,14.14
2022-11-02T12:58:29.986Z,14.18
2022-11-02T13:01:24.354Z,14.13
2022-11-02T13:04:18.218Z,14.25
2022-11-02T13:07:12.270Z,14.48
2022-11-02T13:10:05.851Z,14.50
2022-11-02T13:12:55.910Z,14.58
2022-11-02T13:15:46.197Z,14.51
2022-11-02T13:18:38.257Z,14.57
2022-11-02T13:21:32.044Z,14.43
2022-11-02T13:24:25.170Z,14.24
2022-11-02T13:27:36.967Z,14.24
2022-11-02T13:30:25.014Z,14.11
2022-11-02T13:33:17.925Z,14.11
2022-11-02T13:36:05.776Z,14.14
2022-11-02T13:38:57.639Z,14.14
2022-11-02T13:42:09.206Z,13.99
2022-11-02T13:45:15.864Z,14.01
2022-11-02T13:48:26.564Z,14.07
2022-11-02T13:51:24.839Z,14.20
2022-11-02T13:54:16.664Z,14.29
2022-11-02T13:57:04.645Z,14.35
2022-11-02T13:59:51.633Z,14.35
2022-11-02T14:02:44.045Z,14.29
2022-11-02T14:05:33.465Z,14.21
2022-11-02T14:08:27.140Z,14.02
2022-11-02T14:11:35.273Z,13.97
2022-11-02T14:14:25.983Z,13.88
2022-11-02T14:17:14.809Z,13.85
2022-11-02T14:20:05.055Z,13.92
2022-11-02T14:23:23.942Z,13.88
2022-11-02T14:26:32.620Z,13.83
2022-11-02T14:29:38.551Z,13.92
2022-11-02T14:32:38.236Z,13.78
2022-11-02T14:35:46.381Z,13.67
2022-11-02T14:38:52.923Z,13.63
2022-11-02T14:42:07.912Z,13.49
2022-11-02T14:45:20.995Z,13.46
2022-11-02T14:48:13.442Z,13.54
2022-11-02T14:51:05.737Z,13.41
2022-11-02T14:53:58.360Z,13.42
2022-11-02T14:56:52.483Z,13.38
2022-11-02T14:59:45.856Z,13.39
2022-11-02T15:02:40.245Z,13.43
2022-11-02T15:05:33.683Z,13.30
2022-11-02T15:08:26.752Z,13.11
2022-11-02T15:11:45.209Z,13.18
2022-11-02T15:15:04.432Z,13.04
2022-11-02T15:17:53.896Z,12.92
2022-11-02T15:20:45.930Z,12.87
2022-11-02T15:23:38.661Z,12.82
2022-11-02T15:26:30.560Z,12.75
2022-11-02T15:29:37.021Z,12.60
2022-11-02T15:32:27.651Z,12.52
2022-11-02T15:35:20.277Z,12.60
2022-11-02T15:38:17.479Z,12.57
2022-11-02T15:41:18.176Z,12.54
2022-11-02T15:44:28.484Z,12.35
2022-11-02T15:47:26.735Z,12.24
2022-11-02T15:50:29.110Z,12.21
2022-11-02T15:53:47.721Z,12.21
2022-11-02T15:57:00.624Z,12.04
2022-11-02T16:00:13.336Z,12.00
2022-11-02T16:03:05.105Z,11.91
2022-11-02T16:05:51.967Z,11.66
2022-11-02T16:08:39.183Z,11.76
2022-11-02T16:11:25.686Z,11.79
2022-11-02T16:14:28.021Z,11.62
2022-11-02T16:17:23.741Z,11.50
2022-11-02T16:20:15.933Z,11.50
2022-11-02T16:23:04.839Z,11.37
2022-11-02T16:25:54.462Z,11.42
2022-11-02T16:28:41.134Z,11.31
2022-11-02T16:31:32.120Z,11.19
2022-11-02T16:34:25.475Z,11.28
2022-11-02T16:37:15.805Z,11.11
2022-11-02T16:40:02.734Z,11.14
2022-11-02T16:42:51.083Z,10.96
2022-11-02T16:45:43.386Z,10.95
2022-11-02T16:48:34.756Z,10.87
2022-11-02T16:51:21.783Z,10.81
2022-11-02T16:54:24.996Z,10.78
2022-11-02T16:57:17.424Z,10.72
2022-11-02T17:00:08.000Z,10.62
2022-11-02T17:02:56.511Z,10.56
2022-11-02T17:05:49.981Z,10.48
2022-11-02T17:08:39.659Z,10.48
2022-11-02T17:11:26.504Z,10.50
2022-11-02T17:14:13.277Z,10.41
2022-11-02T17:17:05.162Z,10.58
2022-11-02T17:19:56.184Z,10.46
2022-11-02T17:22:56.972Z,10.45
2022-11-02T17:25:43.600Z,10.33
2022-11-02T17:28:45.837Z,10.15
2022-11-02T17:31:34.711Z,10.03
2022-11-02T17:34:22.586Z,9.96
2022-11-02T17:37:09.346Z,9.84
2022-11-02T17:40:01.086Z,9.80
2022-11-02T17:42:59.922Z,9.54
2022-11-02T17:45:46.815Z,9.47
2022-11-02T17:48:33.536Z,9.36
2022-11-02T17:51:23.153Z,9.18
2022-11-02T17:54:12.320Z,9.03
2022-11-02T17:57:00.317Z,8.89
2022-11-02T17:59:47.071Z,8.84
2022-11-02T18:02:33.618Z,8.76
2022-11-02T18:05:23.953Z,8.66
2022-11-02T18:08:11.320Z,8.55
2022-11-02T18:10:58.095Z,8.52
2022-11-02T18:13:46.157Z,8.49
2022-11-02T18:16:33.244Z,8.51
2022-11-02T18:19:20.466Z,8.48
2022-11-02T18:22:07.105Z,8.44
2022-11-02T18:24:53.884Z,8.38
2022-11-02T18:27:41.460Z,8.32
2022-11-02T18:30:32.439Z,8.23
2022-11-02T18:33:19.214Z,8.13
2022-11-02T18:36:07.509Z,7.99
2022-11-02T18:38:54.182Z,7.96
2022-11-02T18:41:42.582Z,7.87
2022-11-02T18:44:29.272Z,7.89
2022-11-02T18:47:17.472Z,7.93
2022-11-02T18:50:05.998Z,7.74
2022-11-02T18:52:52.796Z,7.65
2022-11-02T18:55:39.911Z,7.65
2022-11-02T18:58:26.727Z,7.57
2022-11-02T19:01:14.502Z,7.51
2022-11-02T19:04:02.902Z,7.56
2022-11-02T19:07:08.227Z,7.62
2022-11-02T19:10:03.278Z,7.51
2022-11-02T19:12:50.567Z,7.45
2022-11-02T19:15:42.362Z,7.41
2022-11-02T19:18:29.466Z,7.41
2022-11-02T19:21:17.596Z,7.60
2022-11-02T19:24:05.458Z,7.65
2022-11-02T19:26:52.463Z,7.56
2022-11-02T19:29:38.970Z,7.62
2022-11-02T19:32:25.978Z,7.62
2022-11-02T19:35:12.545Z,7.66
2022-11-02T19:38:00.699Z,7.66
2022-11-02T19:40:47.465Z,7.68
2022-11-02T19:43:33.964Z,7.94
2022-11-02T19:46:22.317Z,7.77
2022-11-02T19:49:08.781Z,7.70
2022-11-02T19:51:55.498Z,7.63
2022-11-02T19:54:43.498Z,7.61
2022-11-02T19:57:48.048Z,7.51
2022-11-02T20:01:01.666Z,7.46
2022-11-02T20:04:04.451Z,7.44
2022-11-02T20:06:55.541Z,7.26
2022-11-02T20:09:58.693Z,7.33
2022-11-02T20:12:46.402Z,7.24
2022-11-02T20:15:37.909Z,7.21
2022-11-02T20:18:27.433Z,7.16
2022-11-02T20:21:15.334Z,7.08
2022-11-02T20:24:02.211Z,7.18
2022-11-02T20:26:50.394Z,7.24
2022-11-02T20:29:37.398Z,6.95
2022-11-02T20:32:24.210Z,6.86
2022-11-02T20:35:13.847Z,6.89
2022-11-02T20:38:00.991Z,6.86
2022-11-02T20:40:47.821Z,6.82
2022-11-02T20:43:36.242Z,6.94
2022-11-02T20:46:37.656Z,6.86
2022-11-02T20:52:34.423Z,6.76
2022-11-02T20:55:21.400Z,6.63
2022-11-02T20:58:08.299Z,6.60
2022-11-02T21:00:56.308Z,6.46
2022-11-02T21:03:43.085Z,6.34
2022-11-02T21:06:30.048Z,6.29
2022-11-02T21:09:16.545Z,6.18
2022-11-02T21:12:20.406Z,6.10
2022-11-02T21:15:08.407Z,6.02
2022-11-02T21:17:56.273Z,6.00
2022-11-02T21:20:43.352Z,6.04
2022-11-02T21:23:29.906Z,6.34
2022-11-02T21:26:17.138Z,6.16
2022-11-02T21:29:05.817Z,6.02
2022-11-02T21:31:54.530Z,6.08
2022-11-02T21:34:45.417Z,6.12
2022-11-02T21:37:32.439Z,6.14
2022-11-02T21:40:21.225Z,6.04
2022-11-02T21:43:11.410Z,6.08
2022-11-02T21:46:00.797Z,6.02
2022-11-02T21:48:49.893Z,6.22
2022-11-02T21:51:39.651Z,6.07
2022-11-02T21:54:26.723Z,6.00
2022-11-02T21:57:14.564Z,6.10
2022-11-02T22:00:01.599Z,6.02
2022-11-02T22:02:47.540Z,5.99
2022-11-02T22:05:48.183Z,5.96
2022-11-02T22:08:41.862Z,6.00
2022-11-02T22:11:29.363Z,6.02
2022-11-02T22:14:15.991Z,5.98
2022-11-02T22:17:07.533Z,5.90
2022-11-02T22:20:04.312Z,5.82
2022-11-02T22:22:50.855Z,5.82
2022-11-02T22:25:38.917Z,5.80
2022-11-02T22:28:25.611Z,5.74
2022-11-02T22:31:14.990Z,5.75
2022-11-02T22:34:04.826Z,5.71
2022-11-02T22:36:51.619Z,5.55
2022-11-02T22:39:37.318Z,5.43
2022-11-02T22:42:26.108Z,5.48
2022-11-02T22:45:12.773Z,5.30
2022-11-02T22:47:59.444Z,5.22
2022-11-02T22:50:46.315Z,5.14
2022-11-02T22:53:34.175Z,5.08
2022-11-02T22:56:22.508Z,5.07
2022-11-02T22:59:10.647Z,5.00
2022-11-02T23:01:57.646Z,4.96
2022-11-02T23:04:44.250Z,4.94
2022-11-02T23:07:30.974Z,4.87
2022-11-02T23:10:31.798Z,4.84
2022-11-02T23:13:18.291Z,4.90
2022-11-02T23:16:23.698Z,4.89
2022-11-02T23:19:30.958Z,4.90
2022-11-02T23:22:35.490Z,5.01
2022-11-02T23:25:22.497Z,5.03
2022-11-02T23:28:26.826Z,5.09
2022-11-02T23:31:32.290Z,5.06
2022-11-02T23:34:18.941Z,5.10
2022-11-02T23:37:05.521Z,5.17
2022-11-02T23:39:51.961Z,5.24
2022-11-02T23:42:38.937Z,5.20
2022-11-02T23:45:25.515Z,5.36
2022-11-02T23:48:13.582Z,5.27
2022-11-02T23:51:18.358Z,5.46
2022-11-02T23:54:28.421Z,5.39
2022-11-02T23:57:15.063Z,5.28
